sensor_id;sensor_type;location;lat;lon;timestamp;temperature;humidity
2363;DHT22;64265;51.664;7.626;2023-07-31T00:01:34;22.50;99.90
2363;DHT22;64265;51.664;7.626;2023-07-31T00:04:00;22.50;99.90
2363;DHT22;64265;51.664;7.626;2023-07-31T00:06:27;22.50;99.90
2363;DHT22;64265;51.664;7.626;2023-07-31T00:08:55;22.50;99.90
2363;DHT22;64265;51.664;7.626;2023-07-31T00:11:22;22.40;99.90
2363;DHT22;64265;51.664;7.626;2023-07-31T00:13:48;22.40;99.90
2363;DHT22;64265;51.664;7.626;2023-07-31T00:16:15;22.40;99.90
2363;DHT22;64265;51.664;7.626;2023-07-31T00:18:42;22.40;99.90
2363;DHT22;64265;51.664;7.626;2023-07-31T00:21:09;22.40;99.90
2363;DHT22;64265;51.664;7.626;2023-07-31T00:23:35;22.40;99.90
2363;DHT22;64265;51.664;7.626;2023-07-31T00:26:03;22.50;99.90
2363;DHT22;64265;51.664;7.626;2023-07-31T00:28:30;22.40;99.90
2363;DHT22;64265;51.664;7.626;2023-07-31T00:30:57;22.40;99.90
2363;DHT22;64265;51.664;7.626;2023-07-31T00:33:24;22.40;99.90
2363;DHT22;64265;51.664;7.626;2023-07-31T00:35:50;22.40;99.90
2363;DHT22;64265;51.664;7.626;2023-07-31T00:38:17;22.40;99.90
2363;DHT22;64265;51.664;7.626;2023-07-31T00:40:44;22.40;99.90
2363;DHT22;64265;51.664;7.626;2023-07-31T00:43:12;22.40;99.90
2363;DHT22;64265;51.664;7.626;2023-07-31T00:45:39;22.40;99.90
2363;DHT22;64265;51.664;7.626;2023-07-31T00:48:05;22.40;99.90
2363;DHT22;64265;51.664;7.626;2023-07-31T00:50:33;22.40;99.90
2363;DHT22;64265;51.664;7.626;2023-07-31T00:53:01;22.40;99.90
2363;DHT22;64265;51.664;7.626;2023-07-31T00:55:28;22.40;99.90
2363;DHT22;64265;51.664;7.626;2023-07-31T00:57:55;22.40;99.90
2363;DHT22;64265;51.664;7.626;2023-07-31T01:00:23;22.40;99.90
2363;DHT22;64265;51.664;7.626;2023-07-31T01:02:51;22.40;99.90
2363;DHT22;64265;51.664;7.626;2023-07-31T01:05:22;22.40;99.90
2363;DHT22;64265;51.664;7.626;2023-07-31T01:07:58;22.40;99.90
2363;DHT22;64265;51.664;7.626;2023-07-31T01:10:28;22.40;99.90
2363;DHT22;64265;51.664;7.626;2023-07-31T01:12:57;22.40;99.90
2363;DHT22;64265;51.664;7.626;2023-07-31T01:15:26;22.40;99.90
2363;DHT22;64265;51.664;7.626;2023-07-31T01:17:52;22.40;99.90
2363;DHT22;64265;51.664;7.626;2023-07-31T01:20:26;22.40;99.90
2363;DHT22;64265;51.664;7.626;2023-07-31T01:26:03;22.40;99.90
2363;DHT22;64265;51.664;7.626;2023-07-31T01:28:37;22.40;99.90
2363;DHT22;64265;51.664;7.626;2023-07-31T01:31:07;22.40;99.90
2363;DHT22;64265;51.664;7.626;2023-07-31T01:33:36;22.40;99.90
2363;DHT22;64265;51.664;7.626;2023-07-31T01:36:04;22.30;99.90
2363;DHT22;64265;51.664;7.626;2023-07-31T01:38:31;22.30;99.90
2363;DHT22;64265;51.664;7.626;2023-07-31T01:40:59;22.30;99.90
2363;DHT22;64265;51.664;7.626;2023-07-31T01:43:25;22.30;99.90
2363;DHT22;64265;51.664;7.626;2023-07-31T01:45:52;22.30;99.90
2363;DHT22;64265;51.664;7.626;2023-07-31T01:48:19;22.30;99.90
2363;DHT22;64265;51.664;7.626;2023-07-31T01:50:46;22.30;99.90
2363;DHT22;64265;51.664;7.626;2023-07-31T01:53:12;22.30;99.90
2363;DHT22;64265;51.664;7.626;2023-07-31T01:55:40;22.30;99.90
2363;DHT22;64265;51.664;7.626;2023-07-31T01:58:08;22.30;99.90
2363;DHT22;64265;51.664;7.626;2023-07-31T02:00:34;22.30;99.90
2363;DHT22;64265;51.664;7.626;2023-07-31T02:03:01;22.30;99.90
2363;DHT22;64265;51.664;7.626;2023-07-31T02:05:28;22.40;99.90
2363;DHT22;64265;51.664;7.626;2023-07-31T02:07:54;22.30;99.90
2363;DHT22;64265;51.664;7.626;2023-07-31T02:10:21;22.30;99.90
2363;DHT22;64265;51.664;7.626;2023-07-31T02:12:48;22.30;99.90
2363;DHT22;64265;51.664;7.626;2023-07-31T02:15:16;22.30;99.90
2363;DHT22;64265;51.664;7.626;2023-07-31T02:17:43;22.30;99.90
2363;DHT22;64265;51.664;7.626;2023-07-31T02:20:11;22.30;99.90
2363;DHT22;64265;51.664;7.626;2023-07-31T02:22:37;22.30;99.90
2363;DHT22;64265;51.664;7.626;2023-07-31T02:25:05;22.30;99.90
2363;DHT22;64265;51.664;7.626;2023-07-31T02:27:31;22.30;99.90
2363;DHT22;64265;51.664;7.626;2023-07-31T02:29:58;22.30;99.90
2363;DHT22;64265;51.664;7.626;2023-07-31T02:32:27;22.30;99.90
2363;DHT22;64265;51.664;7.626;2023-07-31T02:34:53;22.30;99.90
2363;DHT22;64265;51.664;7.626;2023-07-31T02:37:20;22.30;99.90
2363;DHT22;64265;51.664;7.626;2023-07-31T02:39:47;22.30;99.90
2363;DHT22;64265;51.664;7.626;2023-07-31T02:42:14;22.30;99.90
2363;DHT22;64265;51.664;7.626;2023-07-31T02:44:41;22.30;99.90
2363;DHT22;64265;51.664;7.626;2023-07-31T02:47:08;22.30;99.90
2363;DHT22;64265;51.664;7.626;2023-07-31T02:49:36;22.30;99.90
2363;DHT22;64265;51.664;7.626;2023-07-31T02:52:03;22.30;99.90
2363;DHT22;64265;51.664;7.626;2023-07-31T02:54:30;22.30;99.90
2363;DHT22;64265;51.664;7.626;2023-07-31T02:56:56;22.30;99.90
2363;DHT22;64265;51.664;7.626;2023-07-31T02:59:23;22.30;99.90
2363;DHT22;64265;51.664;7.626;2023-07-31T03:01:50;22.30;99.90
2363;DHT22;64265;51.664;7.626;2023-07-31T03:04:17;22.30;99.90
2363;DHT22;64265;51.664;7.626;2023-07-31T03:06:45;22.30;99.90
2363;DHT22;64265;51.664;7.626;2023-07-31T03:09:12;22.20;99.90
2363;DHT22;64265;51.664;7.626;2023-07-31T03:11:38;22.30;99.90
2363;DHT22;64265;51.664;7.626;2023-07-31T03:14:05;22.30;99.90
2363;DHT22;64265;51.664;7.626;2023-07-31T03:16:32;22.30;99.90
2363;DHT22;64265;51.664;7.626;2023-07-31T03:18:58;22.20;99.90
2363;DHT22;64265;51.664;7.626;2023-07-31T03:21:25;22.20;99.90
2363;DHT22;64265;51.664;7.626;2023-07-31T03:23:53;22.30;99.90
2363;DHT22;64265;51.664;7.626;2023-07-31T03:26:20;22.30;99.90
2363;DHT22;64265;51.664;7.626;2023-07-31T03:28:47;22.30;99.90
2363;DHT22;64265;51.664;7.626;2023-07-31T03:31:15;22.20;99.90
2363;DHT22;64265;51.664;7.626;2023-07-31T03:33:41;22.30;99.90
2363;DHT22;64265;51.664;7.626;2023-07-31T03:36:08;22.20;99.90
2363;DHT22;64265;51.664;7.626;2023-07-31T03:38:35;22.20;99.90
2363;DHT22;64265;51.664;7.626;2023-07-31T03:41:03;22.20;99.90
2363;DHT22;64265;51.664;7.626;2023-07-31T03:43:31;22.20;99.90
2363;DHT22;64265;51.664;7.626;2023-07-31T03:45:59;22.20;99.90
2363;DHT22;64265;51.664;7.626;2023-07-31T03:48:26;22.20;99.90
2363;DHT22;64265;51.664;7.626;2023-07-31T03:50:52;22.20;99.90
2363;DHT22;64265;51.664;7.626;2023-07-31T03:53:19;22.20;99.90
2363;DHT22;64265;51.664;7.626;2023-07-31T03:55:46;22.20;99.90
2363;DHT22;64265;51.664;7.626;2023-07-31T03:58:14;22.20;99.90
2363;DHT22;64265;51.664;7.626;2023-07-31T04:00:41;22.20;99.90
2363;DHT22;64265;51.664;7.626;2023-07-31T04:03:07;22.20;99.90
2363;DHT22;64265;51.664;7.626;2023-07-31T04:05:38;22.20;99.90
2363;DHT22;64265;51.664;7.626;2023-07-31T04:08:06;22.20;99.90
2363;DHT22;64265;51.664;7.626;2023-07-31T04:10:32;22.20;99.90
2363;DHT22;64265;51.664;7.626;2023-07-31T04:12:59;22.20;99.90
2363;DHT22;64265;51.664;7.626;2023-07-31T04:15:27;22.20;99.90
2363;DHT22;64265;51.664;7.626;2023-07-31T04:17:54;22.20;99.90
2363;DHT22;64265;51.664;7.626;2023-07-31T04:20:21;22.20;99.90
2363;DHT22;64265;51.664;7.626;2023-07-31T04:22:48;22.20;99.90
2363;DHT22;64265;51.664;7.626;2023-07-31T04:25:14;22.20;99.90
2363;DHT22;64265;51.664;7.626;2023-07-31T04:27:41;22.20;99.90
2363;DHT22;64265;51.664;7.626;2023-07-31T04:30:08;22.20;99.90
2363;DHT22;64265;51.664;7.626;2023-07-31T04:32:36;22.20;99.90
2363;DHT22;64265;51.664;7.626;2023-07-31T04:35:04;22.20;99.90
2363;DHT22;64265;51.664;7.626;2023-07-31T04:37:31;22.20;99.90
2363;DHT22;64265;51.664;7.626;2023-07-31T04:39:57;22.20;99.90
2363;DHT22;64265;51.664;7.626;2023-07-31T04:42:24;22.20;99.90
2363;DHT22;64265;51.664;7.626;2023-07-31T04:44:51;22.20;99.90
2363;DHT22;64265;51.664;7.626;2023-07-31T04:47:19;22.20;99.90
2363;DHT22;64265;51.664;7.626;2023-07-31T04:49:47;22.20;99.90
2363;DHT22;64265;51.664;7.626;2023-07-31T04:52:13;22.20;99.90
2363;DHT22;64265;51.664;7.626;2023-07-31T04:54:40;22.20;99.90
2363;DHT22;64265;51.664;7.626;2023-07-31T04:57:07;22.20;99.90
2363;DHT22;64265;51.664;7.626;2023-07-31T04:59:33;22.20;99.90
2363;DHT22;64265;51.664;7.626;2023-07-31T05:02:00;22.20;99.90
2363;DHT22;64265;51.664;7.626;2023-07-31T05:04:27;22.20;99.90
2363;DHT22;64265;51.664;7.626;2023-07-31T05:06:55;22.20;99.90
2363;DHT22;64265;51.664;7.626;2023-07-31T05:09:22;22.20;99.90
2363;DHT22;64265;51.664;7.626;2023-07-31T05:11:48;22.20;99.90
2363;DHT22;64265;51.664;7.626;2023-07-31T05:14:15;22.20;99.90
2363;DHT22;64265;51.664;7.626;2023-07-31T05:16:42;22.20;99.90
2363;DHT22;64265;51.664;7.626;2023-07-31T05:19:09;22.20;99.90
2363;DHT22;64265;51.664;7.626;2023-07-31T05:21:35;22.20;99.90
2363;DHT22;64265;51.664;7.626;2023-07-31T05:24:04;22.20;99.90
2363;DHT22;64265;51.664;7.626;2023-07-31T05:26:30;22.20;99.90
2363;DHT22;64265;51.664;7.626;2023-07-31T05:28:57;22.20;99.90
2363;DHT22;64265;51.664;7.626;2023-07-31T05:31:24;22.20;99.90
2363;DHT22;64265;51.664;7.626;2023-07-31T05:33:51;22.20;99.90
2363;DHT22;64265;51.664;7.626;2023-07-31T05:36:18;22.20;99.90
2363;DHT22;64265;51.664;7.626;2023-07-31T05:38:44;22.20;99.90
2363;DHT22;64265;51.664;7.626;2023-07-31T05:41:13;22.20;99.90
2363;DHT22;64265;51.664;7.626;2023-07-31T05:43:39;22.20;99.90
2363;DHT22;64265;51.664;7.626;2023-07-31T05:46:06;22.20;99.90
2363;DHT22;64265;51.664;7.626;2023-07-31T05:48:34;22.10;99.90
2363;DHT22;64265;51.664;7.626;2023-07-31T05:51:01;22.20;99.90
2363;DHT22;64265;51.664;7.626;2023-07-31T05:53:28;22.10;99.90
2363;DHT22;64265;51.664;7.626;2023-07-31T05:55:54;22.20;99.90
2363;DHT22;64265;51.664;7.626;2023-07-31T05:58:22;22.10;99.90
2363;DHT22;64265;51.664;7.626;2023-07-31T06:00:50;22.10;99.90
2363;DHT22;64265;51.664;7.626;2023-07-31T06:03:17;22.10;99.90
2363;DHT22;64265;51.664;7.626;2023-07-31T06:05:44;22.10;99.90
2363;DHT22;64265;51.664;7.626;2023-07-31T06:08:11;22.20;99.90
2363;DHT22;64265;51.664;7.626;2023-07-31T06:10:37;22.10;99.90
2363;DHT22;64265;51.664;7.626;2023-07-31T06:13:04;22.10;99.90
2363;DHT22;64265;51.664;7.626;2023-07-31T06:15:32;22.20;99.90
2363;DHT22;64265;51.664;7.626;2023-07-31T06:17:59;22.10;99.90
2363;DHT22;64265;51.664;7.626;2023-07-31T06:20:27;22.10;99.90
2363;DHT22;64265;51.664;7.626;2023-07-31T06:22:54;22.10;99.90
2363;DHT22;64265;51.664;7.626;2023-07-31T06:25:21;22.10;99.90
2363;DHT22;64265;51.664;7.626;2023-07-31T06:27:47;22.10;99.90
2363;DHT22;64265;51.664;7.626;2023-07-31T06:30:14;22.10;99.90
2363;DHT22;64265;51.664;7.626;2023-07-31T06:32:42;22.10;99.90
2363;DHT22;64265;51.664;7.626;2023-07-31T06:35:09;22.10;99.90
2363;DHT22;64265;51.664;7.626;2023-07-31T06:37:36;22.10;99.90
2363;DHT22;64265;51.664;7.626;2023-07-31T06:40:03;22.10;99.90
2363;DHT22;64265;51.664;7.626;2023-07-31T06:42:32;22.10;99.90
2363;DHT22;64265;51.664;7.626;2023-07-31T06:45:00;22.10;99.90
2363;DHT22;64265;51.664;7.626;2023-07-31T06:47:27;22.10;99.90
2363;DHT22;64265;51.664;7.626;2023-07-31T06:49:55;22.10;99.90
2363;DHT22;64265;51.664;7.626;2023-07-31T06:52:22;22.10;99.90
2363;DHT22;64265;51.664;7.626;2023-07-31T06:55:01;22.10;99.90
2363;DHT22;64265;51.664;7.626;2023-07-31T06:57:28;22.10;99.90
2363;DHT22;64265;51.664;7.626;2023-07-31T06:59:55;22.10;99.90
2363;DHT22;64265;51.664;7.626;2023-07-31T07:02:22;22.10;99.90
2363;DHT22;64265;51.664;7.626;2023-07-31T07:04:50;22.10;99.90
2363;DHT22;64265;51.664;7.626;2023-07-31T07:07:18;22.10;99.90
2363;DHT22;64265;51.664;7.626;2023-07-31T07:09:45;22.10;99.90
2363;DHT22;64265;51.664;7.626;2023-07-31T07:12:12;22.10;99.90
2363;DHT22;64265;51.664;7.626;2023-07-31T07:14:39;22.10;99.90
2363;DHT22;64265;51.664;7.626;2023-07-31T07:17:06;22.10;99.90
2363;DHT22;64265;51.664;7.626;2023-07-31T07:19:32;22.10;99.90
2363;DHT22;64265;51.664;7.626;2023-07-31T07:21:59;22.10;99.90
2363;DHT22;64265;51.664;7.626;2023-07-31T07:24:28;22.10;99.90
2363;DHT22;64265;51.664;7.626;2023-07-31T07:26:55;22.10;99.90
2363;DHT22;64265;51.664;7.626;2023-07-31T07:29:22;22.10;99.90
2363;DHT22;64265;51.664;7.626;2023-07-31T07:31:49;22.10;99.90
2363;DHT22;64265;51.664;7.626;2023-07-31T07:34:15;22.10;99.90
2363;DHT22;64265;51.664;7.626;2023-07-31T07:36:42;22.10;99.90
2363;DHT22;64265;51.664;7.626;2023-07-31T07:39:10;22.10;99.90
2363;DHT22;64265;51.664;7.626;2023-07-31T07:41:38;22.10;99.90
2363;DHT22;64265;51.664;7.626;2023-07-31T07:44:05;22.10;99.90
2363;DHT22;64265;51.664;7.626;2023-07-31T07:46:32;22.10;99.90
2363;DHT22;64265;51.664;7.626;2023-07-31T07:48:58;22.10;99.90
2363;DHT22;64265;51.664;7.626;2023-07-31T07:51:25;22.10;99.90
2363;DHT22;64265;51.664;7.626;2023-07-31T07:53:52;22.10;99.90
2363;DHT22;64265;51.664;7.626;2023-07-31T07:56:19;22.10;99.90
2363;DHT22;64265;51.664;7.626;2023-07-31T07:58:49;22.10;99.90
2363;DHT22;64265;51.664;7.626;2023-07-31T08:01:16;22.10;99.90
2363;DHT22;64265;51.664;7.626;2023-07-31T08:03:43;22.10;99.90
2363;DHT22;64265;51.664;7.626;2023-07-31T08:06:10;22.10;99.90
2363;DHT22;64265;51.664;7.626;2023-07-31T08:08:37;22.10;99.90
2363;DHT22;64265;51.664;7.626;2023-07-31T08:11:04;22.10;99.90
2363;DHT22;64265;51.664;7.626;2023-07-31T08:13:31;22.10;99.90
2363;DHT22;64265;51.664;7.626;2023-07-31T08:15:59;22.10;99.90
2363;DHT22;64265;51.664;7.626;2023-07-31T08:18:26;22.10;99.90
2363;DHT22;64265;51.664;7.626;2023-07-31T08:20:53;22.10;99.90
2363;DHT22;64265;51.664;7.626;2023-07-31T08:23:20;22.10;99.90
2363;DHT22;64265;51.664;7.626;2023-07-31T08:25:46;22.10;99.90
2363;DHT22;64265;51.664;7.626;2023-07-31T08:28:15;22.10;99.90
2363;DHT22;64265;51.664;7.626;2023-07-31T08:30:42;22.10;99.90
2363;DHT22;64265;51.664;7.626;2023-07-31T08:33:10;22.10;99.90
2363;DHT22;64265;51.664;7.626;2023-07-31T08:35:37;22.10;99.90
2363;DHT22;64265;51.664;7.626;2023-07-31T08:38:03;22.10;99.90
2363;DHT22;64265;51.664;7.626;2023-07-31T08:40:30;22.10;99.90
2363;DHT22;64265;51.664;7.626;2023-07-31T08:42:57;22.10;99.90
2363;DHT22;64265;51.664;7.626;2023-07-31T08:45:28;22.10;99.90
2363;DHT22;64265;51.664;7.626;2023-07-31T08:47:56;22.10;99.90
2363;DHT22;64265;51.664;7.626;2023-07-31T08:50:24;22.20;99.90
2363;DHT22;64265;51.664;7.626;2023-07-31T08:52:52;22.20;99.90
2363;DHT22;64265;51.664;7.626;2023-07-31T08:55:19;22.20;99.90
2363;DHT22;64265;51.664;7.626;2023-07-31T08:57:50;22.20;99.90
2363;DHT22;64265;51.664;7.626;2023-07-31T09:00:19;22.20;99.90
2363;DHT22;64265;51.664;7.626;2023-07-31T09:02:54;22.20;99.90
2363;DHT22;64265;51.664;7.626;2023-07-31T09:05:24;22.20;99.90
2363;DHT22;64265;51.664;7.626;2023-07-31T09:07:53;22.20;99.90
2363;DHT22;64265;51.664;7.626;2023-07-31T09:10:21;22.20;99.90
2363;DHT22;64265;51.664;7.626;2023-07-31T09:12:48;22.30;99.90
2363;DHT22;64265;51.664;7.626;2023-07-31T09:15:15;22.30;99.90
2363;DHT22;64265;51.664;7.626;2023-07-31T09:17:42;22.30;99.90
2363;DHT22;64265;51.664;7.626;2023-07-31T09:20:16;22.30;99.90
2363;DHT22;64265;51.664;7.626;2023-07-31T09:22:45;22.40;99.90
2363;DHT22;64265;51.664;7.626;2023-07-31T09:25:15;22.40;99.90
2363;DHT22;64265;51.664;7.626;2023-07-31T09:27:46;22.40;99.90
2363;DHT22;64265;51.664;7.626;2023-07-31T09:30:14;22.40;99.90
2363;DHT22;64265;51.664;7.626;2023-07-31T09:32:42;22.50;99.90
2363;DHT22;64265;51.664;7.626;2023-07-31T09:35:20;22.50;99.90
2363;DHT22;64265;51.664;7.626;2023-07-31T09:37:52;22.50;99.90
2363;DHT22;64265;51.664;7.626;2023-07-31T09:40:26;22.50;99.90
2363;DHT22;64265;51.664;7.626;2023-07-31T09:42:54;22.60;99.90
2363;DHT22;64265;51.664;7.626;2023-07-31T09:45:22;22.60;99.90
2363;DHT22;64265;51.664;7.626;2023-07-31T09:47:49;22.60;99.90
2363;DHT22;64265;51.664;7.626;2023-07-31T09:50:16;22.60;99.90
2363;DHT22;64265;51.664;7.626;2023-07-31T09:52:43;22.60;99.90
2363;DHT22;64265;51.664;7.626;2023-07-31T09:55:11;22.70;99.90
2363;DHT22;64265;51.664;7.626;2023-07-31T09:57:40;22.70;99.90
2363;DHT22;64265;51.664;7.626;2023-07-31T10:00:08;22.70;99.90
2363;DHT22;64265;51.664;7.626;2023-07-31T10:02:36;22.70;99.90
2363;DHT22;64265;51.664;7.626;2023-07-31T10:05:04;22.70;99.90
2363;DHT22;64265;51.664;7.626;2023-07-31T10:07:34;22.80;99.90
2363;DHT22;64265;51.664;7.626;2023-07-31T10:10:04;22.80;99.90
2363;DHT22;64265;51.664;7.626;2023-07-31T10:12:33;22.80;99.90
2363;DHT22;64265;51.664;7.626;2023-07-31T10:15:01;22.80;99.90
2363;DHT22;64265;51.664;7.626;2023-07-31T10:17:29;22.80;99.90
2363;DHT22;64265;51.664;7.626;2023-07-31T10:19:57;22.80;99.90
2363;DHT22;64265;51.664;7.626;2023-07-31T10:22:24;22.90;99.90
2363;DHT22;64265;51.664;7.626;2023-07-31T10:24:52;22.90;99.90
2363;DHT22;64265;51.664;7.626;2023-07-31T10:27:21;22.90;99.90
2363;DHT22;64265;51.664;7.626;2023-07-31T10:29:49;22.90;99.90
2363;DHT22;64265;51.664;7.626;2023-07-31T10:32:20;22.90;99.90
2363;DHT22;64265;51.664;7.626;2023-07-31T10:34:49;22.90;99.90
2363;DHT22;64265;51.664;7.626;2023-07-31T10:37:23;22.90;99.90
2363;DHT22;64265;51.664;7.626;2023-07-31T10:39:58;22.90;99.90
2363;DHT22;64265;51.664;7.626;2023-07-31T10:42:30;22.90;99.90
2363;DHT22;64265;51.664;7.626;2023-07-31T10:45:00;22.90;99.90
2363;DHT22;64265;51.664;7.626;2023-07-31T10:47:36;23.00;99.90
2363;DHT22;64265;51.664;7.626;2023-07-31T10:50:16;23.00;99.90
2363;DHT22;64265;51.664;7.626;2023-07-31T10:52:46;23.00;99.90
2363;DHT22;64265;51.664;7.626;2023-07-31T10:55:26;23.00;99.90
2363;DHT22;64265;51.664;7.626;2023-07-31T10:57:54;23.00;99.90
2363;DHT22;64265;51.664;7.626;2023-07-31T11:00:26;23.00;99.90
2363;DHT22;64265;51.664;7.626;2023-07-31T11:02:57;23.00;99.90
2363;DHT22;64265;51.664;7.626;2023-07-31T11:05:46;23.00;99.90
2363;DHT22;64265;51.664;7.626;2023-07-31T11:08:14;23.00;99.90
2363;DHT22;64265;51.664;7.626;2023-07-31T11:10:42;23.00;99.90
2363;DHT22;64265;51.664;7.626;2023-07-31T11:13:09;23.10;99.90
2363;DHT22;64265;51.664;7.626;2023-07-31T11:15:38;23.10;99.90
2363;DHT22;64265;51.664;7.626;2023-07-31T11:18:05;23.10;99.90
2363;DHT22;64265;51.664;7.626;2023-07-31T11:20:34;23.10;99.90
2363;DHT22;64265;51.664;7.626;2023-07-31T11:23:01;23.10;99.90
2363;DHT22;64265;51.664;7.626;2023-07-31T11:25:29;23.10;99.90
2363;DHT22;64265;51.664;7.626;2023-07-31T11:27:57;23.10;99.90
2363;DHT22;64265;51.664;7.626;2023-07-31T11:30:23;23.10;99.90
2363;DHT22;64265;51.664;7.626;2023-07-31T11:32:51;23.10;99.90
2363;DHT22;64265;51.664;7.626;2023-07-31T11:35:18;23.20;99.90
2363;DHT22;64265;51.664;7.626;2023-07-31T11:37:45;23.20;99.90
2363;DHT22;64265;51.664;7.626;2023-07-31T11:40:12;23.20;99.90
2363;DHT22;64265;51.664;7.626;2023-07-31T11:42:39;23.20;99.90
2363;DHT22;64265;51.664;7.626;2023-07-31T11:45:07;23.20;99.90
2363;DHT22;64265;51.664;7.626;2023-07-31T11:47:34;23.20;99.90
2363;DHT22;64265;51.664;7.626;2023-07-31T11:50:04;23.20;99.90
2363;DHT22;64265;51.664;7.626;2023-07-31T11:52:35;23.20;99.90
2363;DHT22;64265;51.664;7.626;2023-07-31T11:55:04;23.20;99.90
2363;DHT22;64265;51.664;7.626;2023-07-31T11:57:32;23.20;99.90
2363;DHT22;64265;51.664;7.626;2023-07-31T11:59:59;23.20;99.90
2363;DHT22;64265;51.664;7.626;2023-07-31T12:02:26;23.20;99.90
2363;DHT22;64265;51.664;7.626;2023-07-31T12:04:53;23.20;99.90
2363;DHT22;64265;51.664;7.626;2023-07-31T12:07:21;23.20;99.90
2363;DHT22;64265;51.664;7.626;2023-07-31T12:09:51;23.20;99.90
2363;DHT22;64265;51.664;7.626;2023-07-31T12:12:20;23.20;99.90
2363;DHT22;64265;51.664;7.626;2023-07-31T12:14:47;23.20;99.90
2363;DHT22;64265;51.664;7.626;2023-07-31T12:17:16;23.20;99.90
2363;DHT22;64265;51.664;7.626;2023-07-31T12:19:43;23.20;99.90
2363;DHT22;64265;51.664;7.626;2023-07-31T12:22:13;23.20;99.90
2363;DHT22;64265;51.664;7.626;2023-07-31T12:24:42;23.20;99.90
2363;DHT22;64265;51.664;7.626;2023-07-31T12:27:11;23.30;99.90
2363;DHT22;64265;51.664;7.626;2023-07-31T12:29:38;23.30;99.90
2363;DHT22;64265;51.664;7.626;2023-07-31T12:32:19;23.30;99.90
2363;DHT22;64265;51.664;7.626;2023-07-31T12:34:45;23.30;99.90
2363;DHT22;64265;51.664;7.626;2023-07-31T12:37:12;23.30;99.90
2363;DHT22;64265;51.664;7.626;2023-07-31T12:39:40;23.30;99.90
2363;DHT22;64265;51.664;7.626;2023-07-31T12:42:07;23.30;99.90
2363;DHT22;64265;51.664;7.626;2023-07-31T12:44:34;23.30;99.90
2363;DHT22;64265;51.664;7.626;2023-07-31T12:47:00;23.30;99.90
2363;DHT22;64265;51.664;7.626;2023-07-31T12:49:27;23.30;99.90
2363;DHT22;64265;51.664;7.626;2023-07-31T12:51:54;23.30;99.90
2363;DHT22;64265;51.664;7.626;2023-07-31T12:54:20;23.30;99.90
2363;DHT22;64265;51.664;7.626;2023-07-31T12:56:48;23.30;99.90
2363;DHT22;64265;51.664;7.626;2023-07-31T12:59:15;23.30;99.90
2363;DHT22;64265;51.664;7.626;2023-07-31T13:01:42;23.30;99.90
2363;DHT22;64265;51.664;7.626;2023-07-31T13:04:08;23.30;99.90
2363;DHT22;64265;51.664;7.626;2023-07-31T13:06:35;23.30;99.90
2363;DHT22;64265;51.664;7.626;2023-07-31T13:09:02;23.20;99.90
2363;DHT22;64265;51.664;7.626;2023-07-31T13:11:29;23.20;99.90
2363;DHT22;64265;51.664;7.626;2023-07-31T13:13:57;23.20;99.90
2363;DHT22;64265;51.664;7.626;2023-07-31T13:16:24;23.20;99.90
2363;DHT22;64265;51.664;7.626;2023-07-31T13:18:51;23.20;99.90
2363;DHT22;64265;51.664;7.626;2023-07-31T13:21:18;23.20;99.90
2363;DHT22;64265;51.664;7.626;2023-07-31T13:23:47;23.20;99.90
2363;DHT22;64265;51.664;7.626;2023-07-31T13:26:13;23.20;99.90
2363;DHT22;64265;51.664;7.626;2023-07-31T13:28:40;23.20;99.90
2363;DHT22;64265;51.664;7.626;2023-07-31T13:31:08;23.20;99.90
2363;DHT22;64265;51.664;7.626;2023-07-31T13:33:36;23.20;99.90
2363;DHT22;64265;51.664;7.626;2023-07-31T13:36:03;23.20;99.90
2363;DHT22;64265;51.664;7.626;2023-07-31T13:38:30;23.20;99.90
2363;DHT22;64265;51.664;7.626;2023-07-31T13:40:57;23.10;99.90
2363;DHT22;64265;51.664;7.626;2023-07-31T13:43:24;23.10;99.90
2363;DHT22;64265;51.664;7.626;2023-07-31T13:45:50;23.10;99.90
2363;DHT22;64265;51.664;7.626;2023-07-31T13:48:19;23.10;99.90
2363;DHT22;64265;51.664;7.626;2023-07-31T13:50:45;23.10;99.90
2363;DHT22;64265;51.664;7.626;2023-07-31T13:53:12;23.10;99.90
2363;DHT22;64265;51.664;7.626;2023-07-31T13:55:38;23.10;99.90
2363;DHT22;64265;51.664;7.626;2023-07-31T13:58:05;23.10;99.90
2363;DHT22;64265;51.664;7.626;2023-07-31T14:00:32;23.10;99.90
2363;DHT22;64265;51.664;7.626;2023-07-31T14:03:00;23.10;99.90
2363;DHT22;64265;51.664;7.626;2023-07-31T14:05:28;23.00;99.90
2363;DHT22;64265;51.664;7.626;2023-07-31T14:07:55;23.00;99.90
2363;DHT22;64265;51.664;7.626;2023-07-31T14:10:22;23.10;99.90
2363;DHT22;64265;51.664;7.626;2023-07-31T14:12:48;23.00;99.90
2363;DHT22;64265;51.664;7.626;2023-07-31T14:15:15;23.00;99.90
2363;DHT22;64265;51.664;7.626;2023-07-31T14:17:42;23.00;99.90
2363;DHT22;64265;51.664;7.626;2023-07-31T14:20:10;23.00;99.90
2363;DHT22;64265;51.664;7.626;2023-07-31T14:22:38;23.00;99.90
2363;DHT22;64265;51.664;7.626;2023-07-31T14:25:05;23.00;99.90
2363;DHT22;64265;51.664;7.626;2023-07-31T14:27:33;23.00;99.90
2363;DHT22;64265;51.664;7.626;2023-07-31T14:30:00;22.90;99.90
2363;DHT22;64265;51.664;7.626;2023-07-31T14:32:26;23.00;99.90
2363;DHT22;64265;51.664;7.626;2023-07-31T14:34:53;23.00;99.90
2363;DHT22;64265;51.664;7.626;2023-07-31T14:37:20;23.00;99.90
2363;DHT22;64265;51.664;7.626;2023-07-31T14:39:49;23.00;99.90
2363;DHT22;64265;51.664;7.626;2023-07-31T14:42:16;23.00;99.90
2363;DHT22;64265;51.664;7.626;2023-07-31T14:44:43;23.00;99.90
2363;DHT22;64265;51.664;7.626;2023-07-31T14:47:12;23.00;99.90
2363;DHT22;64265;51.664;7.626;2023-07-31T14:49:39;23.00;99.90
2363;DHT22;64265;51.664;7.626;2023-07-31T14:52:06;23.10;99.90
2363;DHT22;64265;51.664;7.626;2023-07-31T14:54:33;23.10;99.90
2363;DHT22;64265;51.664;7.626;2023-07-31T14:57:01;23.10;99.90
2363;DHT22;64265;51.664;7.626;2023-07-31T14:59:28;23.10;99.90
2363;DHT22;64265;51.664;7.626;2023-07-31T15:01:54;23.10;99.90
2363;DHT22;64265;51.664;7.626;2023-07-31T15:04:21;23.20;99.90
2363;DHT22;64265;51.664;7.626;2023-07-31T15:06:49;23.20;99.90
2363;DHT22;64265;51.664;7.626;2023-07-31T15:09:16;23.20;99.90
2363;DHT22;64265;51.664;7.626;2023-07-31T15:11:42;23.20;99.90
2363;DHT22;64265;51.664;7.626;2023-07-31T15:14:10;23.20;99.90
2363;DHT22;64265;51.664;7.626;2023-07-31T15:16:37;23.20;99.90
2363;DHT22;64265;51.664;7.626;2023-07-31T15:19:04;23.20;99.90
2363;DHT22;64265;51.664;7.626;2023-07-31T15:21:31;23.20;99.90
2363;DHT22;64265;51.664;7.626;2023-07-31T15:23:57;23.20;99.90
2363;DHT22;64265;51.664;7.626;2023-07-31T15:26:24;23.20;99.90
2363;DHT22;64265;51.664;7.626;2023-07-31T15:29:02;23.20;99.90
2363;DHT22;64265;51.664;7.626;2023-07-31T15:31:32;23.20;99.90
2363;DHT22;64265;51.664;7.626;2023-07-31T15:33:58;23.20;99.90
2363;DHT22;64265;51.664;7.626;2023-07-31T15:36:25;23.20;99.90
2363;DHT22;64265;51.664;7.626;2023-07-31T15:38:52;23.20;99.90
2363;DHT22;64265;51.664;7.626;2023-07-31T15:41:19;23.20;99.90
2363;DHT22;64265;51.664;7.626;2023-07-31T15:43:45;23.20;99.90
2363;DHT22;64265;51.664;7.626;2023-07-31T15:46:13;23.20;99.90
2363;DHT22;64265;51.664;7.626;2023-07-31T15:48:41;23.20;99.90
2363;DHT22;64265;51.664;7.626;2023-07-31T15:51:07;23.20;99.90